Disclaimer

Please do not use the information listed here in-flight or in-navigation, as they are not provided to us by the airports but are provided by volunteers, so they might be outdated.

Search


Regions


Airport information page

Radio informations:
Tower (TWR) - 120.3 MHz
Automatic Terminal Information Service (ATIS) - 118.025 MHz
Approach (APP) - 123.75 MHz

Airport informations:
Latitude: 53° 51' 57.23" N
Longitude: 001° 39' 38.05" W
Elevation: 681 feet - 208 meters
Operating hours: N/A
Operating agency: Civil government, landing fees and diplomatic clearance may be required
Timezone: UTC 0(+1DT)
Fuel: Jet A1, without icing nhibitor.

100/130 MIL Spec, low lead, aviation gasoline (BLUE)

Runway information:
14/32 - 7382 x 150 feet< - >2250 x 46 meters

Recent METARs:
EGNM 211850Z 11006KT 9999 SCT016 BKN024 03/01 Q1018
EGNM 211920Z 12006KT 9999 SCT018 BKN027 02/01 Q1018
EGNM 211950Z 13006KT 9999 SCT029 02/00 Q1018

Airport on the map: